Time;durP1;ratioP1;P1;durP2;ratioP2;P2;SDS_P1;SDS_P2;PMS_P1;PMS_P2;Temp;Humidity;BMP_temperature;BMP_pressure;BME280_temperature;BME280_humidity;BME280_pressure;Samples;Min_cycle;Max_cycle;Signal;HPM_P1;HPM_P2
2022/06/05 00:02:12;;;;;;;6.28;3.88;;;18.80;76.90;;;;;;5035193;28;20460;-77
2022/06/05 00:04:43;;;;;;;7.85;3.13;;;18.80;76.90;;;;;;5035023;28;20050;-76
2022/06/05 00:07:32;;;;;;;9.75;4.55;;;18.90;76.80;;;;;;5035133;28;20025;-77
2022/06/05 00:10:20;;;;;;;5.53;3.92;;;18.90;76.80;;;;;;5035155;28;20025;-77
2022/06/05 00:13:13;;;;;;;7.47;4.05;;;18.80;76.90;;;;;;5034591;28;20035;-77
2022/06/05 00:15:39;;;;;;;6.65;3.70;;;18.80;77.60;;;;;;5034873;28;20461;-77
2022/06/05 00:18:05;;;;;;;5.28;3.63;;;18.90;76.90;;;;;;5034651;28;20116;-77
2022/06/05 00:20:31;;;;;;;9.32;4.20;;;18.80;76.80;;;;;;5034947;28;20390;-77
2022/06/05 00:22:58;;;;;;;8.77;3.92;;;18.80;76.80;;;;;;5034853;28;20037;-77
2022/06/05 00:25:36;;;;;;;6.82;3.85;;;18.80;76.70;;;;;;5034809;28;20431;-77
2022/06/05 00:28:18;;;;;;;6.35;4.13;;;18.80;76.90;;;;;;5034497;28;20025;-77
2022/06/05 00:31:07;;;;;;;8.70;4.82;;;18.70;76.90;;;;;;5034749;28;20030;-77
2022/06/05 00:33:43;;;;;;;6.47;3.85;;;18.70;77.10;;;;;;5033893;28;20049;-77
2022/06/05 00:36:20;;;;;;;6.68;3.80;;;18.70;77.40;;;;;;5034357;28;20164;-77
2022/06/05 00:39:25;;;;;;;5.63;3.95;;;18.60;77.70;;;;;;5033881;28;20552;-77
2022/06/05 00:41:58;;;;;;;8.07;3.97;;;18.60;77.90;;;;;;5011137;28;20083;-77
2022/06/05 00:44:55;;;;;;;6.75;4.00;;;18.60;77.90;;;;;;5034291;28;20532;-77
2022/06/05 00:47:27;;;;;;;9.35;4.47;;;18.70;77.90;;;;;;5022121;28;20428;-77
2022/06/05 00:50:10;;;;;;;8.82;4.13;;;18.70;77.80;;;;;;5034067;28;20029;-77
2022/06/05 00:52:40;;;;;;;4.97;3.97;;;18.70;77.90;;;;;;5033743;28;20107;-78
2022/06/05 00:55:07;;;;;;;5.90;3.78;;;18.70;77.90;;;;;;5034253;28;20022;-77
2022/06/05 00:57:35;;;;;;;7.50;3.70;;;18.70;77.80;;;;;;5034225;28;20068;-77
2022/06/05 01:00:09;;;;;;;7.63;3.90;;;18.70;77.80;;;;;;5034164;28;20029;-78
2022/06/05 01:02:35;;;;;;;6.43;4.00;;;18.70;77.80;;;;;;5033706;28;20026;-77
2022/06/05 01:05:01;;;;;;;6.95;4.22;;;18.70;77.90;;;;;;5032727;28;20107;-77
2022/06/05 01:07:27;;;;;;;4.05;3.40;;;18.70;78.00;;;;;;5033717;28;20029;-77
2022/06/05 01:09:53;;;;;;;7.10;4.30;;;18.70;78.00;;;;;;5033965;28;20129;-77
2022/06/05 01:12:42;;;;;;;7.70;4.30;;;18.70;78.20;;;;;;5033670;28;20536;-77
2022/06/05 01:15:37;;;;;;;10.32;4.10;;;18.60;78.50;;;;;;5033994;28;20116;-77
2022/06/05 01:18:27;;;;;;;6.93;3.83;;;18.60;78.40;;;;;;5033824;28;20029;-77
2022/06/05 01:21:07;;;;;;;9.93;5.03;;;18.70;78.30;;;;;;5033630;28;20045;-77
2022/06/05 01:23:42;;;;;;;6.32;3.75;;;18.60;78.50;;;;;;5033753;28;20018;-77
2022/06/05 01:26:22;;;;;;;9.23;4.75;;;18.70;78.50;;;;;;5033603;28;20108;-77
2022/06/05 01:29:14;;;;;;;5.95;4.38;;;18.60;78.70;;;;;;5033571;28;20414;-77
2022/06/05 01:31:45;;;;;;;6.22;4.35;;;18.40;79.30;;;;;;5033552;28;20381;-77
2022/06/05 01:34:17;;;;;;;5.20;4.28;;;18.40;79.70;;;;;;5033623;28;20168;-78
2022/06/05 01:36:52;;;;;;;8.70;4.50;;;18.30;79.90;;;;;;5033685;28;20025;-77
2022/06/05 01:39:33;;;;;;;7.18;4.95;;;18.30;79.90;;;;;;5033198;28;20033;-77
2022/06/05 01:42:05;;;;;;;7.68;5.13;;;18.40;80.00;;;;;;5033539;28;20021;-77
2022/06/05 01:44:40;;;;;;;8.98;5.65;;;18.20;80.70;;;;;;5033221;28;20607;-77
2022/06/05 01:47:19;;;;;;;7.30;5.00;;;18.00;81.50;;;;;;5033393;28;20064;-77
2022/06/05 01:49:53;;;;;;;10.20;5.47;;;17.90;82.10;;;;;;5033005;28;20391;-77
2022/06/05 01:52:29;;;;;;;7.72;4.88;;;17.90;82.30;;;;;;5033000;28;20022;-77
2022/06/05 01:55:12;;;;;;;10.65;5.65;;;18.00;82.50;;;;;;5033113;28;20021;-77
2022/06/05 01:57:38;;;;;;;7.20;5.80;;;17.90;82.50;;;;;;5033342;28;20026;-77
2022/06/05 02:00:10;;;;;;;10.15;6.22;;;17.90;82.90;;;;;;5033290;28;20127;-77
2022/06/05 02:02:59;;;;;;;9.20;5.90;;;17.80;83.50;;;;;;5033088;28;20025;-77
2022/06/05 02:05:51;;;;;;;9.40;5.82;;;17.70;84.10;;;;;;5023530;28;20045;-77
2022/06/05 02:08:26;;;;;;;8.93;6.10;;;17.70;84.30;;;;;;5032418;28;20029;-77
2022/06/05 02:11:04;;;;;;;7.85;5.18;;;17.60;84.60;;;;;;5033124;28;20030;-77
2022/06/05 02:13:30;;;;;;;10.20;6.40;;;17.80;84.40;;;;;;5033180;28;20034;-77
2022/06/05 02:15:56;;;;;;;8.40;5.65;;;17.70;84.60;;;;;;5034442;28;20101;-77
2022/06/05 02:18:22;;;;;;;11.25;6.70;;;17.80;84.70;;;;;;5037400;28;20055;-77
2022/06/05 02:20:48;;;;;;;12.32;6.50;;;17.80;84.60;;;;;;5037754;28;20021;-77
2022/06/05 02:23:17;;;;;;;7.25;6.22;;;17.80;84.80;;;;;;5036865;28;20564;-77
2022/06/05 02:25:43;;;;;;;9.00;5.15;;;17.80;85.20;;;;;;5036710;28;20028;-77
2022/06/05 02:28:16;;;;;;;11.25;6.70;;;17.70;85.60;;;;;;5037067;28;20377;-77
2022/06/05 02:31:12;;;;;;;8.82;6.38;;;17.70;85.90;;;;;;5036932;28;20032;-77
2022/06/05 02:33:46;;;;;;;10.70;6.05;;;17.70;85.90;;;;;;5036888;28;20029;-77
2022/06/05 02:36:36;;;;;;;9.52;5.82;;;17.80;85.70;;;;;;5036440;28;20021;-77
2022/06/05 02:39:26;;;;;;;8.85;6.15;;;17.70;86.10;;;;;;5036682;28;20039;-77
2022/06/05 02:42:22;;;;;;;9.77;5.93;;;17.60;86.50;;;;;;5036709;28;20032;-77
2022/06/05 02:45:23;;;;;;;9.60;6.32;;;17.60;86.80;;;;;;5036589;28;20104;-77
2022/06/05 02:48:13;;;;;;;10.32;6.32;;;17.50;87.10;;;;;;4982621;28;20490;-77
2022/06/05 02:50:43;;;;;;;8.98;6.57;;;17.50;87.60;;;;;;5036504;28;20477;-77
2022/06/05 02:53:10;;;;;;;8.10;5.20;;;17.50;87.50;;;;;;5036036;28;20033;-77
2022/06/05 02:55:37;;;;;;;11.30;7.38;;;17.50;87.50;;;;;;5036593;28;20094;-77
2022/06/05 02:58:03;;;;;;;13.82;7.60;;;17.50;87.70;;;;;;5036555;28;20025;-77
2022/06/05 03:00:31;;;;;;;7.78;6.50;;;17.50;88.00;;;;;;5036431;28;20029;-77
2022/06/05 03:05:41;;;;;;;10.48;7.38;;;17.30;88.90;;;;;;5036019;28;20114;-77
2022/06/05 03:08:10;;;;;;;11.13;6.68;;;17.30;89.10;;;;;;5036445;28;20479;-77
2022/06/05 03:10:37;;;;;;;9.65;5.88;;;17.20;89.50;;;;;;5036229;28;20097;-77
2022/06/05 03:13:04;;;;;;;14.02;7.22;;;17.20;89.50;;;;;;5035766;28;20164;-77
2022/06/05 03:15:30;;;;;;;15.02;7.45;;;17.30;89.20;;;;;;5036351;28;20091;-77
2022/06/05 03:17:56;;;;;;;11.55;7.68;;;17.30;89.20;;;;;;5035844;28;20100;-77
2022/06/05 03:20:22;;;;;;;11.48;7.38;;;17.20;89.80;;;;;;5036311;28;20112;-77
2022/06/05 03:22:48;;;;;;;13.15;7.30;;;17.10;90.10;;;;;;5036152;28;20025;-77
2022/06/05 03:25:23;;;;;;;11.20;7.95;;;17.00;90.40;;;;;;5035621;28;20041;-77
2022/06/05 03:27:49;;;;;;;13.38;8.10;;;17.00;90.50;;;;;;5035292;28;20030;-77
2022/06/05 03:30:16;;;;;;;10.43;6.88;;;16.90;90.60;;;;;;5035766;28;20048;-77
2022/06/05 03:32:44;;;;;;;9.38;7.00;;;16.90;90.60;;;;;;5035513;28;20029;-77
2022/06/05 03:35:10;;;;;;;9.23;6.28;;;17.00;90.90;;;;;;5035890;28;20100;-77
2022/06/05 03:37:36;;;;;;;13.63;8.02;;;17.00;90.60;;;;;;5035596;28;20025;-77
2022/06/05 03:40:06;;;;;;;10.32;7.20;;;17.10;90.60;;;;;;5035623;28;20139;-77
2022/06/05 03:42:31;;;;;;;11.27;7.45;;;17.10;90.60;;;;;;5035549;28;20032;-77
2022/06/05 03:45:00;;;;;;;10.13;7.38;;;17.20;90.40;;;;;;5035199;28;20465;-77
2022/06/05 03:47:25;;;;;;;10.25;6.15;;;17.30;90.30;;;;;;5035241;28;20032;-77
2022/06/05 03:49:51;;;;;;;11.30;7.18;;;17.40;90.10;;;;;;5035355;28;20025;-77
2022/06/05 03:52:17;;;;;;;9.27;6.50;;;17.40;89.90;;;;;;5035577;28;20033;-77
2022/06/05 03:54:42;;;;;;;10.75;7.13;;;17.50;89.80;;;;;;5035511;28;20045;-77
2022/06/05 03:57:08;;;;;;;9.05;7.47;;;17.50;89.70;;;;;;5035420;28;20426;-76
2022/06/05 03:59:35;;;;;;;10.43;7.95;;;17.50;89.70;;;;;;5034942;28;20079;-77
2022/06/05 04:02:04;;;;;;;12.65;8.25;;;17.40;90.00;;;;;;5035377;28;20037;-76
2022/06/05 04:04:30;;;;;;;13.13;7.43;;;17.30;90.10;;;;;;5035071;28;20053;-76
2022/06/05 04:06:56;;;;;;;10.77;7.20;;;17.20;90.30;;;;;;5035166;28;20515;-76
2022/06/05 04:09:22;;;;;;;11.75;7.65;;;17.20;90.30;;;;;;5035262;28;20361;-76
2022/06/05 04:11:47;;;;;;;11.23;7.93;;;17.30;90.30;;;;;;5034968;28;20090;-76
2022/06/05 04:14:13;;;;;;;9.27;6.75;;;17.20;90.30;;;;;;5034725;28;20037;-77
2022/06/05 04:16:40;;;;;;;10.90;7.20;;;17.30;90.30;;;;;;5034831;28;20127;-76
2022/06/05 04:19:06;;;;;;;14.23;8.55;;;17.30;90.30;;;;;;5034685;28;20033;-77
2022/06/05 04:21:35;;;;;;;11.32;7.60;;;17.10;90.50;;;;;;5034897;28;20026;-76
2022/06/05 04:24:01;;;;;;;9.35;6.95;;;17.00;90.90;;;;;;5034713;28;20025;-77
2022/06/05 04:26:31;;;;;;;11.30;7.75;;;17.00;90.90;;;;;;5034838;28;20028;-77
2022/06/05 04:28:56;;;;;;;10.32;7.43;;;17.10;90.90;;;;;;5034774;28;20423;-77
2022/06/05 04:31:29;;;;;;;11.13;7.10;;;17.00;91.00;;;;;;5034729;28;20025;-77
2022/06/05 04:33:57;;;;;;;11.80;7.65;;;17.00;91.10;;;;;;5034256;28;20029;-77
2022/06/05 04:36:23;;;;;;;11.13;8.02;;;17.00;91.20;;;;;;5034690;28;20442;-77
2022/06/05 04:38:49;;;;;;;9.70;6.32;;;17.00;91.20;;;;;;5033532;28;20033;-76
2022/06/05 04:41:16;;;;;;;14.77;8.20;;;17.10;91.10;;;;;;5034113;28;20017;-76
2022/06/05 04:43:41;;;;;;;10.18;7.10;;;17.20;91.00;;;;;;5034335;28;20034;-77
2022/06/05 04:46:08;;;;;;;12.65;7.95;;;17.20;90.90;;;;;;5034449;28;20023;-77
2022/06/05 04:48:34;;;;;;;13.43;7.70;;;17.30;91.00;;;;;;5034172;28;20382;-77
2022/06/05 04:51:06;;;;;;;12.95;7.25;;;17.20;90.80;;;;;;5034009;28;20017;-77
2022/06/05 04:53:32;;;;;;;9.18;6.72;;;17.20;90.90;;;;;;5034023;28;20037;-77
2022/06/05 04:55:58;;;;;;;10.38;8.10;;;17.20;90.90;;;;;;5034118;28;20064;-77
2022/06/05 04:58:23;;;;;;;10.57;7.22;;;17.30;90.80;;;;;;5034027;28;20057;-77
2022/06/05 05:00:49;;;;;;;12.48;7.63;;;17.20;90.90;;;;;;5033925;28;20076;-77
2022/06/05 05:03:14;;;;;;;9.98;6.53;;;17.20;90.90;;;;;;5033817;28;20112;-77
2022/06/05 05:05:41;;;;;;;16.02;7.70;;;17.20;91.00;;;;;;5033948;28;20379;-77
2022/06/05 05:08:07;;;;;;;8.32;6.82;;;17.30;90.90;;;;;;5034152;28;20105;-77
2022/06/05 05:10:32;;;;;;;13.25;7.32;;;17.30;90.80;;;;;;5033811;28;20489;-77
2022/06/05 05:12:58;;;;;;;8.45;6.60;;;17.40;90.60;;;;;;5033792;28;20064;-77
2022/06/05 05:15:24;;;;;;;11.45;7.57;;;17.60;90.40;;;;;;5033876;28;20373;-77
2022/06/05 05:17:50;;;;;;;11.50;7.60;;;17.50;90.20;;;;;;5033826;28;20037;-77
2022/06/05 05:20:16;;;;;;;9.57;6.90;;;17.40;90.50;;;;;;5033768;28;20119;-77
2022/06/05 05:22:42;;;;;;;11.73;7.47;;;17.50;90.50;;;;;;5033591;28;20025;-77
2022/06/05 05:25:10;;;;;;;11.82;7.20;;;17.50;90.50;;;;;;5033565;28;20025;-77
2022/06/05 05:27:36;;;;;;;8.30;6.55;;;17.50;90.50;;;;;;5033477;28;20108;-77
2022/06/05 05:30:04;;;;;;;9.43;6.70;;;17.50;90.40;;;;;;5033820;28;20025;-77
2022/06/05 05:32:30;;;;;;;7.78;6.22;;;17.50;90.30;;;;;;5033294;28;20025;-77
2022/06/05 05:34:56;;;;;;;11.30;6.97;;;17.60;90.20;;;;;;5033546;28;20021;-77
2022/06/05 05:37:21;;;;;;;9.38;6.85;;;17.70;89.90;;;;;;5033466;28;20025;-77
2022/06/05 05:42:31;;;;;;;7.38;6.25;;;17.80;89.60;;;;;;5033451;28;20036;-76
2022/06/05 05:44:57;;;;;;;11.60;8.02;;;17.80;89.40;;;;;;5033449;28;20100;-77
2022/06/05 05:47:29;;;;;;;8.60;6.40;;;17.80;89.50;;;;;;5033360;28;20033;-77
2022/06/05 05:50:00;;;;;;;13.52;7.90;;;17.70;89.60;;;;;;5033071;28;20026;-77
2022/06/05 05:52:27;;;;;;;9.77;7.28;;;17.70;89.60;;;;;;5033336;28;20024;-76
2022/06/05 05:54:53;;;;;;;10.55;8.02;;;17.60;90.00;;;;;;5032916;28;20061;-76
2022/06/05 05:57:19;;;;;;;10.75;7.15;;;17.60;90.10;;;;;;5033332;28;20057;-77
2022/06/05 05:59:46;;;;;;;9.60;8.02;;;17.50;90.10;;;;;;5033180;28;20029;-77
2022/06/05 06:02:16;;;;;;;11.20;6.95;;;17.60;90.20;;;;;;5033443;28;20033;-76
2022/06/05 06:04:42;;;;;;;8.75;7.65;;;17.50;90.30;;;;;;5032683;28;20381;-77
2022/06/05 06:07:09;;;;;;;12.43;7.28;;;17.60;90.20;;;;;;5033467;28;20028;-76
2022/06/05 06:09:36;;;;;;;11.27;7.53;;;17.50;90.10;;;;;;5033106;28;20385;-77
2022/06/05 06:12:03;;;;;;;9.68;7.90;;;17.60;90.10;;;;;;5032966;28;20483;-77
2022/06/05 06:14:28;;;;;;;9.57;7.85;;;17.60;90.10;;;;;;5032698;28;20033;-78
2022/06/05 06:16:54;;;;;;;10.57;7.30;;;17.60;90.10;;;;;;5032651;28;20100;-77
2022/06/05 06:19:20;;;;;;;13.13;6.72;;;17.50;90.30;;;;;;5032358;28;20036;-77
2022/06/05 06:21:45;;;;;;;9.85;6.80;;;17.60;90.30;;;;;;5032971;28;20025;-77
2022/06/05 06:24:12;;;;;;;7.80;5.93;;;17.60;90.30;;;;;;5032677;28;20029;-77
2022/06/05 06:26:38;;;;;;;7.93;6.65;;;17.70;90.20;;;;;;5032639;28;20022;-77
2022/06/05 06:29:05;;;;;;;8.63;6.25;;;17.70;90.20;;;;;;5032734;28;20057;-77
2022/06/05 06:31:30;;;;;;;10.95;7.10;;;17.70;90.10;;;;;;5032580;28;20029;-78
2022/06/05 06:33:56;;;;;;;9.95;7.45;;;17.80;90.10;;;;;;5032679;28;20040;-77
2022/06/05 06:36:22;;;;;;;10.50;7.05;;;17.80;90.10;;;;;;5032848;28;20381;-77
2022/06/05 06:38:47;;;;;;;8.40;6.22;;;17.70;90.30;;;;;;5032784;28;20026;-77
2022/06/05 06:41:16;;;;;;;8.02;7.22;;;17.70;90.40;;;;;;5032890;28;20095;-77
2022/06/05 06:43:44;;;;;;;7.55;6.03;;;17.70;90.30;;;;;;5032901;28;20028;-77
2022/06/05 06:46:11;;;;;;;8.00;5.78;;;17.80;90.30;;;;;;5032760;28;20041;-77
2022/06/05 06:48:37;;;;;;;9.23;5.93;;;17.80;90.20;;;;;;5032755;28;20480;-77
2022/06/05 06:51:04;;;;;;;7.20;5.85;;;17.90;90.00;;;;;;5032969;28;20029;-77
2022/06/05 06:53:31;;;;;;;8.82;6.03;;;18.00;90.00;;;;;;5032814;28;20495;-77
2022/06/05 06:55:57;;;;;;;8.60;5.65;;;18.00;89.90;;;;;;5032669;28;20029;-77
2022/06/05 06:58:23;;;;;;;9.45;6.13;;;18.10;89.90;;;;;;5032382;28;20479;-77
2022/06/05 07:00:49;;;;;;;10.48;6.30;;;18.20;89.80;;;;;;5032639;28;20063;-77
2022/06/05 07:03:14;;;;;;;9.43;6.40;;;18.20;89.70;;;;;;5034521;28;20104;-77
2022/06/05 07:05:41;;;;;;;9.07;5.40;;;18.20;89.80;;;;;;5036115;28;20128;-77
2022/06/05 07:08:08;;;;;;;6.80;5.45;;;18.20;89.80;;;;;;5035882;28;20032;-77
2022/06/05 07:10:35;;;;;;;8.68;6.63;;;18.40;89.60;;;;;;5036149;28;20085;-77
2022/06/05 07:13:01;;;;;;;6.80;5.43;;;18.40;89.10;;;;;;5035895;28;20037;-78
2022/06/05 07:15:33;;;;;;;10.20;6.60;;;18.50;88.90;;;;;;5036233;28;20085;-77
2022/06/05 07:18:04;;;;;;;8.75;5.50;;;18.50;88.70;;;;;;5036208;28;20030;-77
2022/06/05 07:20:39;;;;;;;6.18;4.70;;;18.60;88.50;;;;;;5035825;28;20021;-77
2022/06/05 07:23:06;;;;;;;10.55;6.40;;;18.70;88.20;;;;;;5035742;28;20026;-77
2022/06/05 07:25:33;;;;;;;7.32;5.30;;;18.70;88.30;;;;;;5035750;28;20105;-77
2022/06/05 07:27:59;;;;;;;7.97;5.63;;;18.70;88.10;;;;;;5035947;28;20096;-77
2022/06/05 07:30:25;;;;;;;7.65;5.82;;;18.80;88.00;;;;;;5035699;28;20582;-77
2022/06/05 07:32:50;;;;;;;8.63;5.47;;;18.90;87.70;;;;;;5035553;28;20033;-77
2022/06/05 07:35:17;;;;;;;6.97;5.97;;;18.90;88.10;;;;;;5035775;28;20021;-77
2022/06/05 07:37:42;;;;;;;9.15;5.40;;;19.00;87.50;;;;;;5035464;28;20052;-77
2022/06/05 07:40:09;;;;;;;5.45;4.82;;;19.00;87.30;;;;;;5035456;28;20059;-77
2022/06/05 07:42:37;;;;;;;7.45;4.80;;;19.00;87.40;;;;;;5035440;28;20064;-77
2022/06/05 07:45:03;;;;;;;6.93;5.38;;;19.10;87.20;;;;;;5035551;28;20370;-77
2022/06/05 07:47:28;;;;;;;10.57;5.63;;;19.20;86.80;;;;;;5035596;28;20025;-77
2022/06/05 07:49:54;;;;;;;6.38;5.43;;;19.20;86.90;;;;;;5035689;28;20384;-77
2022/06/05 07:55:04;;;;;;;8.02;5.40;;;19.30;86.20;;;;;;5035280;28;20044;-76
2022/06/05 07:57:30;;;;;;;6.95;4.90;;;19.30;86.20;;;;;;5035226;28;20021;-76
2022/06/05 07:59:55;;;;;;;6.38;4.88;;;19.40;86.40;;;;;;5035400;28;20366;-76
2022/06/05 08:02:26;;;;;;;5.25;4.60;;;19.50;86.20;;;;;;5035111;28;20025;-78
2022/06/05 08:04:54;;;;;;;4.70;4.30;;;19.60;86.20;;;;;;5035094;28;20064;-76
2022/06/05 08:07:23;;;;;;;7.18;5.00;;;19.70;86.00;;;;;;5035040;28;20026;-76
2022/06/05 08:09:49;;;;;;;19.10;5.63;;;19.90;85.00;;;;;;5034708;28;20025;-76
2022/06/05 08:12:18;;;;;;;5.60;4.55;;;19.90;84.90;;;;;;5035214;28;20026;-76
2022/06/05 08:14:45;;;;;;;6.18;4.50;;;20.00;84.80;;;;;;5034710;28;20246;-77
2022/06/05 08:17:14;;;;;;;8.65;4.25;;;20.10;84.90;;;;;;5035168;28;20034;-76
2022/06/05 08:19:41;;;;;;;4.85;4.32;;;20.30;84.30;;;;;;5034944;28;20025;-77
2022/06/05 08:22:09;;;;;;;7.60;4.90;;;20.30;83.80;;;;;;5034786;28;20025;-77
2022/06/05 08:24:35;;;;;;;6.00;4.63;;;20.40;83.20;;;;;;5034345;28;20040;-77
2022/06/05 08:27:01;;;;;;;6.53;5.00;;;20.50;82.90;;;;;;5034617;28;20572;-77
2022/06/05 08:29:27;;;;;;;6.00;3.72;;;20.50;82.70;;;;;;5034761;28;20025;-78
2022/06/05 08:31:53;;;;;;;5.82;3.92;;;20.60;83.20;;;;;;5034791;28;20029;-77
2022/06/05 08:34:20;;;;;;;5.95;3.80;;;20.60;83.10;;;;;;5034508;28;20033;-77
2022/06/05 08:36:46;;;;;;;5.18;3.72;;;20.70;83.30;;;;;;5034439;28;20419;-77
2022/06/05 08:42:18;;;;;;;5.65;4.63;;;20.90;82.90;;;;;;5034534;28;20033;-77
2022/06/05 08:45:11;;;;;;;5.55;4.07;;;21.00;82.70;;;;;;5034552;28;20018;-77
2022/06/05 08:47:47;;;;;;;6.22;4.10;;;21.20;82.60;;;;;;5034229;28;20029;-77
2022/06/05 08:50:22;;;;;;;5.13;3.83;;;21.20;82.20;;;;;;5034171;28;20021;-77
2022/06/05 08:53:05;;;;;;;3.70;3.28;;;21.30;82.60;;;;;;5034200;28;20090;-77
2022/06/05 08:55:39;;;;;;;4.75;4.22;;;21.50;82.20;;;;;;5033041;28;20083;-77
2022/06/05 08:58:30;;;;;;;5.40;3.75;;;21.70;81.90;;;;;;5034055;28;20061;-77
2022/06/05 09:01:02;;;;;;;5.60;4.53;;;21.80;81.00;;;;;;5034101;28;20036;-77
2022/06/05 09:03:52;;;;;;;5.55;4.60;;;21.90;80.10;;;;;;5033731;28;20404;-77
2022/06/05 09:06:39;;;;;;;4.60;3.70;;;22.00;79.80;;;;;;5033752;28;20049;-77
2022/06/05 09:09:15;;;;;;;4.40;4.00;;;22.10;79.60;;;;;;5033739;28;20033;-76
2022/06/05 09:11:46;;;;;;;4.50;4.03;;;22.20;79.50;;;;;;5033706;28;20053;-76
2022/06/05 09:14:16;;;;;;;5.60;4.40;;;22.30;79.50;;;;;;5034014;28;20095;-76
2022/06/05 09:16:48;;;;;;;4.72;4.20;;;22.30;79.00;;;;;;5033777;28;20034;-76
2022/06/05 09:19:17;;;;;;;6.60;4.25;;;22.40;79.20;;;;;;5033793;28;20032;-77
2022/06/05 09:21:58;;;;;;;5.38;4.43;;;22.50;79.70;;;;;;5033852;28;20045;-77
2022/06/05 09:24:38;;;;;;;5.72;5.00;;;22.60;80.10;;;;;;5033744;28;20075;-77
2022/06/05 09:27:42;;;;;;;5.55;5.05;;;22.70;78.60;;;;;;5033111;28;20425;-77
2022/06/05 09:30:33;;;;;;;12.35;5.40;;;22.80;78.30;;;;;;4979945;28;20035;-77
2022/06/05 09:33:04;;;;;;;5.03;4.53;;;22.80;78.10;;;;;;5033457;28;20044;-77
2022/06/05 09:35:36;;;;;;;5.60;4.70;;;22.80;78.30;;;;;;5033698;28;20021;-76
2022/06/05 09:38:17;;;;;;;7.28;4.53;;;22.80;78.00;;;;;;5033514;28;20022;-76
2022/06/05 09:41:10;;;;;;;8.45;4.75;;;22.90;78.70;;;;;;5033276;28;20024;-76
2022/06/05 09:43:48;;;;;;;6.55;4.03;;;22.90;79.00;;;;;;5033213;28;20029;-77
2022/06/05 09:46:38;;;;;;;6.70;4.65;;;22.80;78.40;;;;;;5033631;28;20039;-77
2022/06/05 09:49:16;;;;;;;7.65;5.13;;;22.80;78.60;;;;;;5033362;28;20108;-77
2022/06/05 09:51:43;;;;;;;6.20;5.18;;;22.80;78.00;;;;;;5033006;28;20056;-77
2022/06/05 09:54:20;;;;;;;5.63;4.88;;;22.70;78.40;;;;;;5033097;28;20042;-77
2022/06/05 10:00:05;;;;;;;4.75;3.72;;;22.60;78.40;;;;;;5033151;28;20031;-77
2022/06/05 10:02:33;;;;;;;5.22;4.13;;;22.60;79.00;;;;;;5033017;28;20033;-77
2022/06/05 10:04:58;;;;;;;6.22;4.72;;;22.60;79.30;;;;;;5033026;28;20421;-77
2022/06/05 10:07:49;;;;;;;4.10;3.80;;;22.60;79.30;;;;;;5033287;28;20022;-76
2022/06/05 10:10:19;;;;;;;4.80;4.10;;;22.60;79.20;;;;;;5033023;28;20029;-77
2022/06/05 10:12:53;;;;;;;5.63;4.10;;;22.70;79.50;;;;;;5032938;28;20076;-77
2022/06/05 10:15:39;;;;;;;4.65;3.80;;;22.60;79.40;;;;;;5033249;28;20030;-76
2022/06/05 10:18:14;;;;;;;6.88;4.13;;;22.60;79.40;;;;;;5032913;28;20037;-76
2022/06/05 10:20:49;;;;;;;6.45;4.60;;;22.60;79.60;;;;;;5032911;28;20406;-76
2022/06/05 10:23:46;;;;;;;6.97;4.15;;;22.60;79.50;;;;;;5032730;28;20045;-76
2022/06/05 10:26:24;;;;;;;6.45;3.88;;;22.60;80.20;;;;;;5033076;28;20049;-76
2022/06/05 10:28:53;;;;;;;5.63;3.88;;;22.60;80.20;;;;;;5032857;28;20029;-77
2022/06/05 10:31:21;;;;;;;4.90;4.13;;;22.60;79.40;;;;;;5033192;28;20497;-77
2022/06/05 10:33:53;;;;;;;5.28;4.18;;;22.60;79.30;;;;;;5032581;28;20052;-77
2022/06/05 10:36:29;;;;;;;4.77;4.10;;;22.60;79.30;;;;;;5032799;28;20461;-77
2022/06/05 10:39:18;;;;;;;4.90;4.18;;;22.60;79.00;;;;;;5035926;28;20362;-77
2022/06/05 10:41:49;;;;;;;6.80;4.25;;;22.60;79.20;;;;;;5036331;28;20026;-77
2022/06/05 10:44:22;;;;;;;4.75;3.40;;;22.60;79.80;;;;;;5036624;28;20033;-77
2022/06/05 10:47:16;;;;;;;4.85;3.17;;;22.60;80.10;;;;;;5036514;28;20022;-77
2022/06/05 10:50:04;;;;;;;5.28;3.78;;;22.60;80.30;;;;;;5036423;28;20033;-77
2022/06/05 10:52:38;;;;;;;4.55;4.15;;;22.60;79.90;;;;;;5036007;28;20022;-78
2022/06/05 10:55:30;;;;;;;4.43;3.67;;;22.60;80.30;;;;;;5036145;28;20439;-78
2022/06/05 10:58:15;;;;;;;6.43;3.60;;;22.60;79.80;;;;;;5036447;28;20105;-76
2022/06/05 11:00:50;;;;;;;4.47;3.60;;;22.60;79.70;;;;;;5036098;28;20037;-77
2022/06/05 11:03:44;;;;;;;5.13;4.32;;;22.60;80.00;;;;;;5035994;28;20057;-77
2022/06/05 11:06:27;;;;;;;6.38;4.07;;;22.60;80.20;;;;;;5035802;28;20056;-77
2022/06/05 11:08:56;;;;;;;5.13;4.30;;;22.50;79.70;;;;;;5036054;28;20025;-77
2022/06/05 11:14:27;;;;;;;6.10;3.88;;;22.50;79.60;;;;;;5035835;28;20044;-77
2022/06/05 11:17:11;;;;;;;4.25;3.92;;;22.50;79.70;;;;;;5035893;28;20014;-77
2022/06/05 11:20:05;;;;;;;5.05;3.70;;;22.50;79.50;;;;;;5035706;28;20029;-77
2022/06/05 11:22:32;;;;;;;5.63;3.95;;;22.50;79.50;;;;;;5035954;28;20052;-77
2022/06/05 11:25:30;;;;;;;6.55;3.92;;;22.40;79.30;;;;;;5035647;28;20022;-77
2022/06/05 11:28:23;;;;;;;4.72;4.32;;;22.40;79.30;;;;;;5034816;28;20034;-77
2022/06/05 11:31:17;;;;;;;5.57;3.53;;;22.40;79.60;;;;;;5035511;28;20104;-77
2022/06/05 11:34:13;;;;;;;4.97;3.70;;;22.40;79.50;;;;;;5035470;28;20366;-77
2022/06/05 11:36:49;;;;;;;5.28;3.75;;;22.40;79.40;;;;;;5035508;28;20028;-77
2022/06/05 11:39:34;;;;;;;5.47;4.50;;;22.40;79.30;;;;;;5035647;28;20108;-77
2022/06/05 11:42:28;;;;;;;5.30;3.58;;;22.40;79.30;;;;;;5035528;28;20026;-77
2022/06/05 11:45:30;;;;;;;4.22;3.83;;;22.40;79.60;;;;;;5035723;28;20026;-77
2022/06/05 11:48:03;;;;;;;;;;;22.40;79.40;;;;;;5035281;28;20025;-77
2022/06/05 11:50:44;;;;;;;3.95;3.55;;;22.40;79.80;;;;;;5035199;28;19991;-77
2022/06/05 11:53:32;;;;;;;7.18;3.90;;;22.40;80.00;;;;;;5035569;28;20040;-77
2022/06/05 11:56:35;;;;;;;4.15;3.67;;;22.40;80.40;;;;;;5034929;28;20072;-77
2022/06/05 11:59:19;;;;;;;6.65;3.50;;;22.30;80.40;;;;;;5034899;28;20111;-77
2022/06/05 12:01:51;;;;;;;4.13;3.72;;;22.30;80.40;;;;;;5035379;28;20096;-78
2022/06/05 12:04:20;;;;;;;4.00;3.60;;;22.30;80.70;;;;;;5034872;28;20077;-77
2022/06/05 12:06:56;;;;;;;4.32;3.72;;;22.30;80.80;;;;;;5034788;28;20159;-78
2022/06/05 12:09:25;;;;;;;4.25;3.95;;;22.30;81.60;;;;;;5035034;28;20029;-78
2022/06/05 12:12:05;;;;;;;7.13;4.30;;;22.30;82.90;;;;;;5034512;28;20432;-77
2022/06/05 12:14:42;;;;;;;4.53;4.13;;;22.20;83.20;;;;;;5034813;28;20044;-77
2022/06/05 12:17:21;;;;;;;4.63;4.00;;;22.20;83.70;;;;;;5035102;28;20025;-78
2022/06/05 12:19:50;;;;;;;5.57;4.22;;;22.20;84.40;;;;;;5034584;28;20029;-77
2022/06/05 12:22:42;;;;;;;3.72;3.20;;;22.20;85.10;;;;;;5034967;28;20104;-78
2022/06/05 12:25:34;;;;;;;4.00;3.63;;;22.20;85.50;;;;;;5034807;28;20090;-77
2022/06/05 12:28:17;;;;;;;5.30;4.70;;;22.20;85.80;;;;;;5034786;28;20042;-77
2022/06/05 12:30:50;;;;;;;;;;;22.30;87.00;;;;;;5035297;28;20071;-77
2022/06/05 12:33:25;;;;;;;5.35;4.85;;;22.30;87.50;;;;;;5034542;28;19959;-77
2022/06/05 12:35:54;;;;;;;7.22;5.72;;;22.30;88.40;;;;;;5034572;28;20084;-77
2022/06/05 12:38:23;;;;;;;6.65;5.95;;;22.20;88.60;;;;;;5034371;28;20385;-77
2022/06/05 12:41:15;;;;;;;10.18;6.85;;;22.10;90.00;;;;;;5034659;28;20022;-77
2022/06/05 12:43:56;;;;;;;7.35;6.40;;;22.00;90.90;;;;;;5034158;28;20025;-77
2022/06/05 12:46:40;;;;;;;7.13;6.40;;;22.00;91.30;;;;;;5034320;28;20043;-77
2022/06/05 12:49:25;;;;;;;7.75;6.82;;;21.90;91.60;;;;;;5034118;28;20064;-77
2022/06/05 12:52:27;;;;;;;6.00;5.50;;;21.90;92.00;;;;;;5034407;28;20030;-77
2022/06/05 12:55:29;;;;;;;6.88;6.18;;;21.90;92.20;;;;;;5000840;28;20049;-77
2022/06/05 12:58:07;;;;;;;6.85;6.22;;;21.90;92.20;;;;;;5014999;28;20038;-77
2022/06/05 13:01:11;;;;;;;7.50;6.80;;;21.90;92.30;;;;;;5033229;28;20025;-77
2022/06/05 13:03:51;;;;;;;11.00;8.38;;;21.90;92.60;;;;;;5033804;28;20025;-77
2022/06/05 13:06:51;;;;;;;8.93;8.05;;;22.00;93.30;;;;;;5033810;28;20045;-77
2022/06/05 13:09:32;;;;;;;10.27;8.00;;;21.90;93.60;;;;;;5034056;28;20033;-77
2022/06/05 13:12:23;;;;;;;10.90;7.30;;;21.90;93.90;;;;;;5034053;28;20018;-77
2022/06/05 13:15:17;;;;;;;9.25;8.45;;;21.90;93.90;;;;;;5033974;28;20043;-77
2022/06/05 13:17:51;;;;;;;9.15;8.25;;;21.90;94.00;;;;;;5025182;28;20030;-77
2022/06/05 13:20:54;;;;;;;9.15;8.23;;;21.90;94.40;;;;;;5033905;28;20399;-77
2022/06/05 13:23:32;;;;;;;10.18;9.13;;;21.90;94.70;;;;;;5033826;28;20342;-77
2022/06/05 13:26:11;;;;;;;9.27;8.52;;;21.90;95.00;;;;;;5033571;28;20022;-77
2022/06/05 13:28:57;;;;;;;10.52;9.52;;;21.90;95.40;;;;;;5033534;28;20507;-76
2022/06/05 13:31:28;;;;;;;8.45;7.72;;;21.90;95.80;;;;;;5033393;28;20073;-77
2022/06/05 13:34:12;;;;;;;11.20;10.20;;;21.80;95.80;;;;;;5033329;28;20366;-76
2022/06/05 13:37:19;;;;;;;10.20;9.35;;;21.80;95.90;;;;;;5033405;28;20306;-77
2022/06/05 13:39:56;;;;;;;11.70;10.43;;;21.80;95.80;;;;;;4999999;28;20493;-77